This is the latest recevied weather packets stored in our database for station/object KF7MJQ-10. If no packets are shown the sender has not sent any weather packets the latest 10 day(s).
| Time | Temp. | Humidity | Pressure | Rain* | Wind** | Luminosity | Snow |
|---|---|---|---|---|---|---|---|
| 1777784742 | 10° C | 1% | 1013.3 hPa | 0 mm | - | - | - |
| 1777784439 | 10° C | 1% | 1013.4 hPa | 0 mm | - | - | - |
| 1777783522 | 10° C | 1% | 1013.2 hPa | 0 mm | - | - | - |
| 1777782921 | 10° C | 1% | 1013.1 hPa | 0 mm | - | - | - |
| 1777780512 | 10.56° C | 1% | 1012.9 hPa | 0 mm | - | - | - |
| 1777779910 | 10.56° C | 1% | 1012.7 hPa | 0 mm | - | - | - |
| 1777779608 | 10.56° C | 1% | 1012.7 hPa | 0 mm | - | - | - |
| 1777778703 | 10.56° C | 1% | 1012.6 hPa | 0 mm | - | - | - |
| 1777777559 | 11.11° C | 1% | 1012.6 hPa | 0 mm | - | - | - |
| 1777776353 | 11.11° C | 1% | 1012.5 hPa | 0 mm | - | - | - |
| 1777776033 | 11.11° C | 1% | 1012.5 hPa | 0 mm | - | - | - |
| 1777775732 | 11.11° C | 1% | 1012.5 hPa | 0 mm | - | - | - |
| 1777775128 | 11.11° C | 1% | 1012.3 hPa | 0 mm | - | - | - |
| 1777774526 | 11.11° C | 1% | 1012.3 hPa | 0 mm | - | - | - |
| 1777774207 | 11.67° C | 1% | 1012.2 hPa | 0 mm | - | - | - |
| 1777769412 | 12.22° C | 1% | 1012.9 hPa | 0 mm | - | - | - |
| 1777769107 | 12.22° C | 1% | 1012.9 hPa | 0 mm | - | - | - |
| 1777767042 | 12.22° C | 1% | 1013 hPa | 0 mm | - | - | - |
| 1777764932 | 13.33° C | 1% | 1013.4 hPa | 0 mm | - | - | - |
| 1777764632 | 13.89° C | 1% | 1013.5 hPa | 0 mm | - | - | - |
| 1777764027 | 13.89° C | 1% | 1013.6 hPa | 0 mm | - | - | - |
| 1777763124 | 14.44° C | 1% | 1013.8 hPa | 0 mm | - | - | - |
| 1777760713 | 16.11° C | 1% | 1014.5 hPa | 0 mm | - | - | - |
| 1777758304 | 16.67° C | 1% | 1014.8 hPa | 0 mm | - | - | - |
| 1777756858 | 17.78° C | 4% | 1014.9 hPa | 0 mm | - | - | - |
* Rain latest hour (hover to see other rain measurements)
** Current wind speed in m/s (hover to see current wind gust speed)